EXS58K LGKR-EGSS
Flight info
| Callsign | EXS58K |
|---|---|
| Flight time | N/A |
| Altitude | 40000 |
| Route | OLGAT DCT LUMAR DCT AIOSA DCT ELGUS DCT LABIN DCT VIC DCT RESIA DCT ELMUR DCT RIPUS DCT DITON DCT HOC DCT LUL DCT RLP DCT ROTSI DCT KOTUN DCT NIDUV DCT SOSUN DCT SUBIP UM733 BANVA |
| Aircraft | B738/M-SDE2E3FGHIRWXY/LB1 |
Departure
| Time | 2026-04-27 14:31 |
|---|---|
| Airport | Corfu Ioannis Kapodistrias International Airport (LGKR) |
Arrival
| Time | N/A |
|---|---|
| Airport | London Stansted Airport (EGSS) |
| Time | Latitude | Longitude | Altitude | Speed | Heading |
|---|---|---|---|---|---|
| 2026-04-27 14:07 | 39.60706 | 19.91354 | 17 ft | 0 kts | 79° |
| 2026-04-27 14:21 | 39.60704 | 19.91343 | 17 ft | 3 kts | 79° |
| 2026-04-27 14:21 | 39.60701 | 19.91317 | 19 ft | 3 kts | 79° |
| 2026-04-27 14:22 | 39.60697 | 19.91292 | 20 ft | 3 kts | 79° |
| 2026-04-27 14:22 | 39.60693 | 19.91266 | 20 ft | 3 kts | 79° |
| 2026-04-27 14:22 | 39.60690 | 19.91242 | 19 ft | 3 kts | 97° |
| 2026-04-27 14:22 | 39.60696 | 19.91223 | 19 ft | 3 kts | 147° |
| 2026-04-27 14:23 | 39.60711 | 19.91214 | 17 ft | 2 kts | 168° |
| 2026-04-27 14:23 | 39.60724 | 19.91211 | 17 ft | 3 kts | 169° |
| 2026-04-27 14:23 | 39.60738 | 19.91207 | 17 ft | 1 kts | 169° |
| 2026-04-27 14:26 | 39.60736 | 19.91208 | 17 ft | 1 kts | 169° |
| 2026-04-27 14:26 | 39.60703 | 19.91216 | 19 ft | 7 kts | 169° |
| 2026-04-27 14:26 | 39.60637 | 19.91232 | 20 ft | 12 kts | 173° |
| 2026-04-27 14:27 | 39.60586 | 19.91207 | 18 ft | 12 kts | 221° |
| 2026-04-27 14:27 | 39.60504 | 19.91147 | 18 ft | 17 kts | 191° |
| 2026-04-27 14:27 | 39.60356 | 19.91178 | 18 ft | 26 kts | 171° |
| 2026-04-27 14:27 | 39.60180 | 19.91216 | 22 ft | 25 kts | 168° |
| 2026-04-27 14:28 | 39.60012 | 19.91261 | 20 ft | 24 kts | 168° |
| 2026-04-27 14:28 | 39.59854 | 19.91304 | 21 ft | 25 kts | 168° |
| 2026-04-27 14:28 | 39.59664 | 19.91351 | 19 ft | 29 kts | 168° |
| 2026-04-27 14:28 | 39.59471 | 19.91403 | 19 ft | 28 kts | 168° |
| 2026-04-27 14:29 | 39.59287 | 19.91449 | 17 ft | 26 kts | 168° |
| 2026-04-27 14:29 | 39.59170 | 19.91512 | 16 ft | 7 kts | 177° |
| 2026-04-27 14:29 | 39.59160 | 19.91465 | 16 ft | 7 kts | 323° |
| 2026-04-27 14:29 | 39.59211 | 19.91467 | 16 ft | 8 kts | 349° |
| 2026-04-27 14:30 | 39.59212 | 19.91466 | 16 ft | 0 kts | 348° |
| 2026-04-27 14:30 | 39.59361 | 19.91427 | 17 ft | 61 kts | 349° |
| 2026-04-27 14:30 | 39.60043 | 19.91251 | 22 ft | 137 kts | 348° |
| 2026-04-27 14:30 | 39.61165 | 19.90963 | 233 ft | 180 kts | 349° |
| 2026-04-27 14:31 | 39.62372 | 19.90684 | 1222 ft | 170 kts | 350° |
| 2026-04-27 14:31 | 39.63519 | 19.90352 | 2014 ft | 173 kts | 347° |
| 2026-04-27 14:31 | 39.64702 | 19.89865 | 2612 ft | 180 kts | 324° |
| 2026-04-27 14:31 | 39.65477 | 19.88604 | 3210 ft | 186 kts | 291° |
| 2026-04-27 14:32 | 39.65670 | 19.86904 | 3580 ft | 202 kts | 265° |
| 2026-04-27 14:32 | 39.65635 | 19.84979 | 3898 ft | 220 kts | 266° |
| 2026-04-27 14:32 | 39.65604 | 19.82896 | 4132 ft | 244 kts | 266° |
| 2026-04-27 14:32 | 39.65587 | 19.80595 | 4413 ft | 266 kts | 272° |
| 2026-04-27 14:33 | 39.66242 | 19.78333 | 5131 ft | 275 kts | 307° |
| 2026-04-27 14:33 | 39.67555 | 19.76531 | 6035 ft | 275 kts | 314° |
| 2026-04-27 14:33 | 39.68934 | 19.74786 | 6837 ft | 278 kts | 314° |
| 2026-04-27 14:33 | 39.70326 | 19.73014 | 7604 ft | 282 kts | 314° |
| 2026-04-27 14:34 | 39.71722 | 19.71207 | 8365 ft | 285 kts | 314° |
| 2026-04-27 14:34 | 39.73126 | 19.69361 | 9144 ft | 289 kts | 314° |
| 2026-04-27 14:34 | 39.74537 | 19.67486 | 9939 ft | 292 kts | 314° |
| 2026-04-27 14:34 | 39.75957 | 19.65584 | 10654 ft | 294 kts | 313° |
| 2026-04-27 14:35 | 39.77378 | 19.63671 | 11416 ft | 295 kts | 313° |
| 2026-04-27 14:35 | 39.78838 | 19.61701 | 11759 ft | 313 kts | 313° |
| 2026-04-27 14:35 | 39.80398 | 19.59591 | 11934 ft | 334 kts | 313° |
| 2026-04-27 14:35 | 39.82056 | 19.57347 | 12193 ft | 351 kts | 313° |
| 2026-04-27 14:36 | 39.83767 | 19.55030 | 12806 ft | 357 kts | 313° |
| 2026-04-27 14:36 | 39.85486 | 19.52700 | 13581 ft | 358 kts | 313° |
| 2026-04-27 14:36 | 39.87219 | 19.50370 | 14301 ft | 358 kts | 313° |
| 2026-04-27 14:36 | 39.88961 | 19.48037 | 14963 ft | 360 kts | 313° |
| 2026-04-27 14:37 | 39.90712 | 19.45691 | 15592 ft | 363 kts | 313° |
| 2026-04-27 14:37 | 39.92481 | 19.43320 | 16197 ft | 366 kts | 313° |
| 2026-04-27 14:37 | 39.94262 | 19.40930 | 16829 ft | 368 kts | 313° |
| 2026-04-27 14:37 | 39.96051 | 19.38525 | 17461 ft | 371 kts | 313° |
| 2026-04-27 14:38 | 39.97849 | 19.36107 | 18078 ft | 373 kts | 313° |
| 2026-04-27 14:38 | 39.99660 | 19.33667 | 18645 ft | 376 kts | 313° |
| 2026-04-27 14:38 | 40.01482 | 19.31211 | 19164 ft | 378 kts | 313° |
| 2026-04-27 14:38 | 40.03316 | 19.28737 | 19676 ft | 380 kts | 313° |
| 2026-04-27 14:39 | 40.05163 | 19.26243 | 20185 ft | 383 kts | 313° |
| 2026-04-27 14:39 | 40.07020 | 19.23733 | 20682 ft | 386 kts | 313° |
| 2026-04-27 14:39 | 40.08887 | 19.21206 | 21174 ft | 388 kts | 313° |
| 2026-04-27 14:39 | 40.10767 | 19.18662 | 21659 ft | 391 kts | 313° |
| 2026-04-27 14:40 | 40.12660 | 19.16097 | 22131 ft | 393 kts | 313° |
| 2026-04-27 14:40 | 40.14563 | 19.13515 | 22600 ft | 396 kts | 313° |
| 2026-04-27 14:40 | 40.16479 | 19.10915 | 23059 ft | 398 kts | 313° |
| 2026-04-27 14:40 | 40.18403 | 19.08301 | 23494 ft | 401 kts | 313° |
| 2026-04-27 14:41 | 40.20345 | 19.05660 | 23861 ft | 404 kts | 313° |
| 2026-04-27 14:41 | 40.22301 | 19.02998 | 24230 ft | 407 kts | 313° |
| 2026-04-27 14:41 | 40.24267 | 19.00325 | 24610 ft | 408 kts | 313° |
| 2026-04-27 14:41 | 40.26362 | 18.97799 | 24989 ft | 411 kts | 319° |
| 2026-04-27 14:42 | 40.28576 | 18.95490 | 25341 ft | 413 kts | 321° |
| 2026-04-27 14:42 | 40.30905 | 18.93188 | 25685 ft | 416 kts | 322° |
| 2026-04-27 14:42 | 40.33231 | 18.90914 | 26015 ft | 418 kts | 322° |
| 2026-04-27 14:42 | 40.35561 | 18.88619 | 26340 ft | 420 kts | 321° |
| 2026-04-27 14:43 | 40.37893 | 18.86293 | 26680 ft | 422 kts | 321° |
| 2026-04-27 14:43 | 40.40193 | 18.83975 | 27002 ft | 424 kts | 321° |
| 2026-04-27 14:43 | 40.42564 | 18.81565 | 27329 ft | 426 kts | 321° |
| 2026-04-27 14:43 | 40.44853 | 18.79169 | 27632 ft | 428 kts | 318° |
| 2026-04-27 14:44 | 40.47073 | 18.76553 | 27903 ft | 430 kts | 316° |
| 2026-04-27 14:44 | 40.49239 | 18.73830 | 28197 ft | 432 kts | 315° |
| 2026-04-27 14:44 | 40.51387 | 18.71067 | 28500 ft | 433 kts | 314° |
| 2026-04-27 14:44 | 40.53544 | 18.68286 | 28789 ft | 435 kts | 315° |
| 2026-04-27 14:45 | 40.55715 | 18.65503 | 29071 ft | 437 kts | 315° |
| 2026-04-27 14:45 | 40.57903 | 18.62716 | 29374 ft | 438 kts | 315° |
| 2026-04-27 14:45 | 40.60093 | 18.59943 | 29792 ft | 436 kts | 315° |
| 2026-04-27 14:45 | 40.62275 | 18.57189 | 30237 ft | 434 kts | 315° |
| 2026-04-27 14:46 | 40.64453 | 18.54444 | 30587 ft | 432 kts | 315° |
| 2026-04-27 14:46 | 40.66624 | 18.51711 | 30909 ft | 432 kts | 315° |
| 2026-04-27 14:46 | 40.68792 | 18.48978 | 31226 ft | 431 kts | 315° |
| 2026-04-27 14:46 | 40.70949 | 18.46258 | 31616 ft | 428 kts | 315° |
| 2026-04-27 14:47 | 40.73090 | 18.43555 | 32058 ft | 424 kts | 315° |
| 2026-04-27 14:47 | 40.75214 | 18.40870 | 32393 ft | 422 kts | 314° |
| 2026-04-27 14:47 | 40.77334 | 18.38188 | 32678 ft | 422 kts | 314° |
| 2026-04-27 14:47 | 40.79449 | 18.35508 | 32958 ft | 422 kts | 314° |
| 2026-04-27 14:48 | 40.81562 | 18.32829 | 33269 ft | 420 kts | 314° |
| 2026-04-27 14:48 | 40.85764 | 18.27494 | 33874 ft | 418 kts | 314° |
| 2026-04-27 14:48 | 40.87859 | 18.24830 | 34133 ft | 418 kts | 314° |
| 2026-04-27 14:49 | 40.89948 | 18.22171 | 34363 ft | 417 kts | 314° |
| 2026-04-27 14:49 | 40.92036 | 18.19511 | 34568 ft | 417 kts | 314° |
| 2026-04-27 14:49 | 40.94124 | 18.16849 | 34755 ft | 417 kts | 314° |
| 2026-04-27 14:49 | 40.96213 | 18.14183 | 34979 ft | 417 kts | 314° |
| 2026-04-27 14:50 | 40.98293 | 18.11527 | 35225 ft | 415 kts | 314° |
| 2026-04-27 14:50 | 41.00370 | 18.08871 | 35425 ft | 415 kts | 314° |
| 2026-04-27 14:50 | 41.02449 | 18.06210 | 35596 ft | 416 kts | 314° |
| 2026-04-27 14:50 | 41.04527 | 18.03549 | 35769 ft | 416 kts | 314° |
| 2026-04-27 14:51 | 41.06603 | 18.00886 | 35968 ft | 415 kts | 314° |
| 2026-04-27 14:51 | 41.08681 | 17.98221 | 36081 ft | 416 kts | 314° |
| 2026-04-27 14:51 | 41.12150 | 17.93763 | 36088 ft | 418 kts | 314° |
| 2026-04-27 14:52 | 41.17007 | 17.87511 | 36091 ft | 414 kts | 314° |
| 2026-04-27 14:52 | 41.21123 | 17.82203 | 36082 ft | 411 kts | 314° |
| 2026-04-27 14:53 | 41.25189 | 17.76950 | 36089 ft | 409 kts | 314° |
| 2026-04-27 14:53 | 41.29260 | 17.71678 | 36088 ft | 408 kts | 314° |
| 2026-04-27 14:54 | 41.33321 | 17.66411 | 36088 ft | 408 kts | 313° |
| 2026-04-27 14:54 | 41.37385 | 17.61130 | 36095 ft | 409 kts | 313° |
| 2026-04-27 14:55 | 41.41459 | 17.55827 | 36091 ft | 410 kts | 313° |
| 2026-04-27 14:55 | 41.45545 | 17.50497 | 36090 ft | 412 kts | 313° |
| 2026-04-27 14:56 | 41.49651 | 17.45132 | 36090 ft | 414 kts | 313° |
| 2026-04-27 14:56 | 41.53769 | 17.39741 | 36094 ft | 416 kts | 313° |
| 2026-04-27 14:57 | 41.57901 | 17.34322 | 36093 ft | 417 kts | 313° |
| 2026-04-27 14:57 | 41.62035 | 17.28890 | 36090 ft | 417 kts | 313° |
| 2026-04-27 14:58 | 41.66169 | 17.23448 | 36089 ft | 417 kts | 313° |
| 2026-04-27 14:58 | 41.70302 | 17.17996 | 36089 ft | 416 kts | 313° |
| 2026-04-27 14:59 | 41.74417 | 17.12558 | 36098 ft | 416 kts | 313° |
| 2026-04-27 14:59 | 41.78525 | 17.07118 | 36087 ft | 414 kts | 313° |
| 2026-04-27 15:00 | 41.82614 | 17.01694 | 36091 ft | 413 kts | 313° |
| 2026-04-27 15:00 | 41.86664 | 16.96312 | 36093 ft | 412 kts | 313° |
| 2026-04-27 15:01 | 41.90723 | 16.90906 | 36090 ft | 411 kts | 313° |